sensor_id;sensor_type;location;lat;lon;timestamp;P1;durP1;ratioP1;P2;durP2;ratioP2
27025;SDS011;14565;48.626;8.978;2023-02-19T00:02:24;4.65;;;2.20;;
27025;SDS011;14565;48.626;8.978;2023-02-19T00:04:50;2.80;;;2.00;;
27025;SDS011;14565;48.626;8.978;2023-02-19T00:07:16;2.55;;;2.03;;
27025;SDS011;14565;48.626;8.978;2023-02-19T00:09:41;6.03;;;2.03;;
27025;SDS011;14565;48.626;8.978;2023-02-19T00:12:07;3.58;;;2.08;;
27025;SDS011;14565;48.626;8.978;2023-02-19T00:14:32;2.60;;;2.00;;
27025;SDS011;14565;48.626;8.978;2023-02-19T00:16:58;5.63;;;2.53;;
27025;SDS011;14565;48.626;8.978;2023-02-19T00:19:24;2.97;;;2.00;;
27025;SDS011;14565;48.626;8.978;2023-02-19T00:21:50;4.05;;;1.95;;
27025;SDS011;14565;48.626;8.978;2023-02-19T00:24:16;3.63;;;1.95;;
27025;SDS011;14565;48.626;8.978;2023-02-19T00:26:43;4.32;;;1.80;;
27025;SDS011;14565;48.626;8.978;2023-02-19T00:29:13;5.97;;;2.10;;
27025;SDS011;14565;48.626;8.978;2023-02-19T00:31:41;4.35;;;2.35;;
27025;SDS011;14565;48.626;8.978;2023-02-19T00:34:08;3.50;;;2.20;;
27025;SDS011;14565;48.626;8.978;2023-02-19T00:36:35;2.95;;;2.13;;
27025;SDS011;14565;48.626;8.978;2023-02-19T00:39:03;3.63;;;2.28;;
27025;SDS011;14565;48.626;8.978;2023-02-19T00:41:30;3.90;;;2.03;;
27025;SDS011;14565;48.626;8.978;2023-02-19T00:43:59;2.63;;;2.13;;
27025;SDS011;14565;48.626;8.978;2023-02-19T00:46:33;3.22;;;2.22;;
27025;SDS011;14565;48.626;8.978;2023-02-19T00:49:01;2.55;;;2.00;;
27025;SDS011;14565;48.626;8.978;2023-02-19T00:51:29;2.95;;;2.15;;
27025;SDS011;14565;48.626;8.978;2023-02-19T00:53:56;4.40;;;2.00;;
27025;SDS011;14565;48.626;8.978;2023-02-19T00:56:21;2.97;;;2.03;;
27025;SDS011;14565;48.626;8.978;2023-02-19T00:58:47;2.70;;;1.92;;
27025;SDS011;14565;48.626;8.978;2023-02-19T01:01:13;5.38;;;2.22;;
27025;SDS011;14565;48.626;8.978;2023-02-19T01:03:39;2.85;;;2.17;;
27025;SDS011;14565;48.626;8.978;2023-02-19T01:06:06;2.58;;;2.03;;
27025;SDS011;14565;48.626;8.978;2023-02-19T01:08:33;3.40;;;2.50;;
27025;SDS011;14565;48.626;8.978;2023-02-19T01:10:59;2.95;;;2.13;;
27025;SDS011;14565;48.626;8.978;2023-02-19T01:13:26;4.53;;;2.35;;
27025;SDS011;14565;48.626;8.978;2023-02-19T01:16:01;3.22;;;1.90;;
27025;SDS011;14565;48.626;8.978;2023-02-19T01:18:30;2.90;;;2.10;;
27025;SDS011;14565;48.626;8.978;2023-02-19T01:20:56;4.07;;;1.85;;
27025;SDS011;14565;48.626;8.978;2023-02-19T01:23:22;4.35;;;1.83;;
27025;SDS011;14565;48.626;8.978;2023-02-19T01:25:48;4.10;;;2.00;;
27025;SDS011;14565;48.626;8.978;2023-02-19T01:28:13;3.28;;;2.30;;
27025;SDS011;14565;48.626;8.978;2023-02-19T01:30:39;3.00;;;2.10;;
27025;SDS011;14565;48.626;8.978;2023-02-19T01:33:06;2.67;;;2.03;;
27025;SDS011;14565;48.626;8.978;2023-02-19T01:35:32;2.78;;;1.92;;
27025;SDS011;14565;48.626;8.978;2023-02-19T01:37:59;3.78;;;2.13;;
27025;SDS011;14565;48.626;8.978;2023-02-19T01:40:25;4.43;;;2.60;;
27025;SDS011;14565;48.626;8.978;2023-02-19T01:42:51;2.50;;;2.00;;
27025;SDS011;14565;48.626;8.978;2023-02-19T01:48:10;3.08;;;2.60;;
27025;SDS011;14565;48.626;8.978;2023-02-19T01:50:41;3.72;;;2.17;;
27025;SDS011;14565;48.626;8.978;2023-02-19T01:53:11;3.33;;;2.28;;
27025;SDS011;14565;48.626;8.978;2023-02-19T01:55:40;3.88;;;2.33;;
27025;SDS011;14565;48.626;8.978;2023-02-19T01:58:10;3.22;;;2.40;;
27025;SDS011;14565;48.626;8.978;2023-02-19T02:00:35;3.92;;;2.47;;
27025;SDS011;14565;48.626;8.978;2023-02-19T02:03:01;3.80;;;2.38;;
27025;SDS011;14565;48.626;8.978;2023-02-19T02:05:37;2.85;;;2.40;;
27025;SDS011;14565;48.626;8.978;2023-02-19T02:08:17;3.60;;;2.42;;
27025;SDS011;14565;48.626;8.978;2023-02-19T02:11:02;4.05;;;2.47;;
27025;SDS011;14565;48.626;8.978;2023-02-19T02:13:28;4.10;;;2.60;;
27025;SDS011;14565;48.626;8.978;2023-02-19T02:27:05;4.75;;;2.72;;
27025;SDS011;14565;48.626;8.978;2023-02-19T02:29:50;3.47;;;2.33;;
27025;SDS011;14565;48.626;8.978;2023-02-19T02:32:25;4.30;;;2.80;;
27025;SDS011;14565;48.626;8.978;2023-02-19T02:34:58;3.38;;;2.70;;
27025;SDS011;14565;48.626;8.978;2023-02-19T02:37:28;3.63;;;2.60;;
27025;SDS011;14565;48.626;8.978;2023-02-19T02:39:58;4.18;;;2.85;;
27025;SDS011;14565;48.626;8.978;2023-02-19T02:42:25;3.13;;;2.40;;
27025;SDS011;14565;48.626;8.978;2023-02-19T02:44:51;3.67;;;2.90;;
27025;SDS011;14565;48.626;8.978;2023-02-19T02:47:36;4.03;;;2.78;;
27025;SDS011;14565;48.626;8.978;2023-02-19T02:50:33;3.28;;;2.67;;
27025;SDS011;14565;48.626;8.978;2023-02-19T02:53:03;3.65;;;2.50;;
27025;SDS011;14565;48.626;8.978;2023-02-19T02:55:54;5.38;;;3.08;;
27025;SDS011;14565;48.626;8.978;2023-02-19T02:58:22;2.40;;;2.20;;
27025;SDS011;14565;48.626;8.978;2023-02-19T03:00:50;3.38;;;2.35;;
27025;SDS011;14565;48.626;8.978;2023-02-19T03:03:40;3.03;;;2.35;;
27025;SDS011;14565;48.626;8.978;2023-02-19T03:06:09;2.50;;;2.20;;
27025;SDS011;14565;48.626;8.978;2023-02-19T03:08:46;2.47;;;2.17;;
27025;SDS011;14565;48.626;8.978;2023-02-19T03:11:13;3.75;;;2.35;;
27025;SDS011;14565;48.626;8.978;2023-02-19T03:14:11;3.53;;;2.30;;
27025;SDS011;14565;48.626;8.978;2023-02-19T03:17:02;4.18;;;2.20;;
27025;SDS011;14565;48.626;8.978;2023-02-19T03:19:54;4.88;;;2.08;;
27025;SDS011;14565;48.626;8.978;2023-02-19T03:22:26;3.30;;;1.90;;
27025;SDS011;14565;48.626;8.978;2023-02-19T03:25:02;2.80;;;1.90;;
27025;SDS011;14565;48.626;8.978;2023-02-19T03:27:50;3.30;;;2.25;;
27025;SDS011;14565;48.626;8.978;2023-02-19T03:30:22;2.20;;;1.80;;
27025;SDS011;14565;48.626;8.978;2023-02-19T03:33:09;3.90;;;1.90;;
27025;SDS011;14565;48.626;8.978;2023-02-19T03:35:44;2.55;;;2.05;;
27025;SDS011;14565;48.626;8.978;2023-02-19T03:38:27;2.67;;;1.70;;
27025;SDS011;14565;48.626;8.978;2023-02-19T03:41:09;2.83;;;1.90;;
27025;SDS011;14565;48.626;8.978;2023-02-19T03:49:27;3.42;;;1.77;;
27025;SDS011;14565;48.626;8.978;2023-02-19T03:57:30;1.65;;;1.40;;
27025;SDS011;14565;48.626;8.978;2023-02-19T04:02:38;2.92;;;1.60;;
27025;SDS011;14565;48.626;8.978;2023-02-19T04:08:02;1.60;;;1.25;;
27025;SDS011;14565;48.626;8.978;2023-02-19T04:10:32;1.98;;;1.40;;
27025;SDS011;14565;48.626;8.978;2023-02-19T04:13:01;1.10;;;1.00;;
27025;SDS011;14565;48.626;8.978;2023-02-19T04:15:32;1.90;;;1.40;;
27025;SDS011;14565;48.626;8.978;2023-02-19T04:18:00;1.67;;;1.30;;
27025;SDS011;14565;48.626;8.978;2023-02-19T04:20:33;2.33;;;1.50;;
27025;SDS011;14565;48.626;8.978;2023-02-19T04:23:03;2.05;;;1.05;;
27025;SDS011;14565;48.626;8.978;2023-02-19T04:25:29;1.27;;;1.10;;
27025;SDS011;14565;48.626;8.978;2023-02-19T04:27:56;1.45;;;1.10;;
27025;SDS011;14565;48.626;8.978;2023-02-19T04:30:22;1.42;;;1.00;;
27025;SDS011;14565;48.626;8.978;2023-02-19T04:32:48;3.75;;;1.15;;
27025;SDS011;14565;48.626;8.978;2023-02-19T04:35:14;1.38;;;1.00;;
27025;SDS011;14565;48.626;8.978;2023-02-19T04:37:39;1.40;;;1.10;;
27025;SDS011;14565;48.626;8.978;2023-02-19T04:40:05;0.93;;;0.70;;
27025;SDS011;14565;48.626;8.978;2023-02-19T04:42:31;1.60;;;0.88;;
27025;SDS011;14565;48.626;8.978;2023-02-19T04:44:57;2.45;;;0.80;;
27025;SDS011;14565;48.626;8.978;2023-02-19T04:47:22;1.10;;;0.73;;
27025;SDS011;14565;48.626;8.978;2023-02-19T04:49:48;1.10;;;0.80;;
27025;SDS011;14565;48.626;8.978;2023-02-19T04:52:14;1.23;;;0.60;;
27025;SDS011;14565;48.626;8.978;2023-02-19T04:54:39;0.95;;;0.50;;
27025;SDS011;14565;48.626;8.978;2023-02-19T04:57:05;0.65;;;0.52;;
27025;SDS011;14565;48.626;8.978;2023-02-19T04:59:31;0.63;;;0.40;;
27025;SDS011;14565;48.626;8.978;2023-02-19T05:01:56;0.40;;;0.40;;
27025;SDS011;14565;48.626;8.978;2023-02-19T05:04:22;0.63;;;0.32;;
27025;SDS011;14565;48.626;8.978;2023-02-19T05:06:49;0.63;;;0.35;;
27025;SDS011;14565;48.626;8.978;2023-02-19T05:09:15;0.68;;;0.40;;
27025;SDS011;14565;48.626;8.978;2023-02-19T05:11:40;0.68;;;0.35;;
27025;SDS011;14565;48.626;8.978;2023-02-19T05:14:06;0.57;;;0.50;;
27025;SDS011;14565;48.626;8.978;2023-02-19T05:16:31;0.30;;;0.30;;
27025;SDS011;14565;48.626;8.978;2023-02-19T05:18:57;0.40;;;0.35;;
27025;SDS011;14565;48.626;8.978;2023-02-19T05:21:23;0.30;;;0.30;;
27025;SDS011;14565;48.626;8.978;2023-02-19T05:23:49;0.40;;;0.40;;
27025;SDS011;14565;48.626;8.978;2023-02-19T05:26:16;0.68;;;0.40;;
27025;SDS011;14565;48.626;8.978;2023-02-19T05:28:44;0.40;;;0.40;;
27025;SDS011;14565;48.626;8.978;2023-02-19T05:31:11;0.30;;;0.30;;
27025;SDS011;14565;48.626;8.978;2023-02-19T05:33:37;0.45;;;0.40;;
27025;SDS011;14565;48.626;8.978;2023-02-19T05:36:07;0.43;;;0.30;;
27025;SDS011;14565;48.626;8.978;2023-02-19T05:38:34;0.40;;;0.30;;
27025;SDS011;14565;48.626;8.978;2023-02-19T05:41:07;0.32;;;0.30;;
27025;SDS011;14565;48.626;8.978;2023-02-19T05:43:34;0.30;;;0.30;;
27025;SDS011;14565;48.626;8.978;2023-02-19T05:46:00;0.30;;;0.30;;
27025;SDS011;14565;48.626;8.978;2023-02-19T05:48:26;0.30;;;0.30;;
27025;SDS011;14565;48.626;8.978;2023-02-19T05:50:51;0.75;;;0.40;;
27025;SDS011;14565;48.626;8.978;2023-02-19T05:53:17;0.43;;;0.40;;
27025;SDS011;14565;48.626;8.978;2023-02-19T05:55:43;0.32;;;0.30;;
27025;SDS011;14565;48.626;8.978;2023-02-19T05:58:08;0.30;;;0.30;;
27025;SDS011;14565;48.626;8.978;2023-02-19T06:00:34;0.30;;;0.30;;
27025;SDS011;14565;48.626;8.978;2023-02-19T06:03:00;0.35;;;0.30;;
27025;SDS011;14565;48.626;8.978;2023-02-19T06:05:26;1.00;;;0.30;;
27025;SDS011;14565;48.626;8.978;2023-02-19T06:07:51;0.43;;;0.38;;
27025;SDS011;14565;48.626;8.978;2023-02-19T06:10:17;0.30;;;0.30;;
27025;SDS011;14565;48.626;8.978;2023-02-19T06:12:43;0.38;;;0.38;;
27025;SDS011;14565;48.626;8.978;2023-02-19T06:15:09;0.30;;;0.30;;
27025;SDS011;14565;48.626;8.978;2023-02-19T06:17:34;0.30;;;0.30;;
27025;SDS011;14565;48.626;8.978;2023-02-19T06:20:00;0.40;;;0.40;;
27025;SDS011;14565;48.626;8.978;2023-02-19T06:22:26;0.22;;;0.22;;
27025;SDS011;14565;48.626;8.978;2023-02-19T06:24:52;0.30;;;0.30;;
27025;SDS011;14565;48.626;8.978;2023-02-19T06:27:17;0.85;;;0.30;;
27025;SDS011;14565;48.626;8.978;2023-02-19T06:29:43;0.30;;;0.30;;
27025;SDS011;14565;48.626;8.978;2023-02-19T06:32:09;0.25;;;0.25;;
27025;SDS011;14565;48.626;8.978;2023-02-19T06:34:35;0.30;;;0.30;;
27025;SDS011;14565;48.626;8.978;2023-02-19T06:37:01;0.30;;;0.30;;
27025;SDS011;14565;48.626;8.978;2023-02-19T06:39:26;0.82;;;0.50;;
27025;SDS011;14565;48.626;8.978;2023-02-19T06:41:56;0.57;;;0.30;;
27025;SDS011;14565;48.626;8.978;2023-02-19T06:44:22;0.50;;;0.30;;
27025;SDS011;14565;48.626;8.978;2023-02-19T06:46:48;0.57;;;0.20;;
27025;SDS011;14565;48.626;8.978;2023-02-19T06:49:14;0.30;;;0.30;;
27025;SDS011;14565;48.626;8.978;2023-02-19T06:51:40;0.35;;;0.30;;
27025;SDS011;14565;48.626;8.978;2023-02-19T06:54:06;0.40;;;0.30;;
27025;SDS011;14565;48.626;8.978;2023-02-19T06:56:36;0.40;;;0.40;;
27025;SDS011;14565;48.626;8.978;2023-02-19T06:59:07;0.95;;;0.38;;
27025;SDS011;14565;48.626;8.978;2023-02-19T07:01:36;0.32;;;0.32;;
27025;SDS011;14565;48.626;8.978;2023-02-19T07:04:02;1.05;;;0.60;;
27025;SDS011;14565;48.626;8.978;2023-02-19T07:06:29;0.60;;;0.52;;
27025;SDS011;14565;48.626;8.978;2023-02-19T07:08:56;1.10;;;0.60;;
27025;SDS011;14565;48.626;8.978;2023-02-19T07:11:22;1.40;;;0.67;;
27025;SDS011;14565;48.626;8.978;2023-02-19T07:13:53;0.73;;;0.40;;
27025;SDS011;14565;48.626;8.978;2023-02-19T07:16:22;0.40;;;0.40;;
27025;SDS011;14565;48.626;8.978;2023-02-19T07:18:48;1.08;;;0.40;;
27025;SDS011;14565;48.626;8.978;2023-02-19T07:21:14;1.45;;;0.40;;
27025;SDS011;14565;48.626;8.978;2023-02-19T07:23:41;0.47;;;0.47;;
27025;SDS011;14565;48.626;8.978;2023-02-19T07:26:08;0.40;;;0.40;;
27025;SDS011;14565;48.626;8.978;2023-02-19T07:28:35;0.45;;;0.40;;
27025;SDS011;14565;48.626;8.978;2023-02-19T07:31:01;0.55;;;0.50;;
27025;SDS011;14565;48.626;8.978;2023-02-19T07:33:27;0.50;;;0.50;;
27025;SDS011;14565;48.626;8.978;2023-02-19T07:35:54;0.40;;;0.40;;
27025;SDS011;14565;48.626;8.978;2023-02-19T07:38:20;0.70;;;0.60;;
27025;SDS011;14565;48.626;8.978;2023-02-19T07:40:56;0.50;;;0.50;;
27025;SDS011;14565;48.626;8.978;2023-02-19T07:43:24;0.80;;;0.50;;
27025;SDS011;14565;48.626;8.978;2023-02-19T07:45:51;0.77;;;0.60;;
27025;SDS011;14565;48.626;8.978;2023-02-19T07:48:16;1.42;;;0.70;;
27025;SDS011;14565;48.626;8.978;2023-02-19T07:53:18;0.65;;;0.50;;
27025;SDS011;14565;48.626;8.978;2023-02-19T07:55:44;1.58;;;0.45;;
27025;SDS011;14565;48.626;8.978;2023-02-19T07:58:09;0.73;;;0.40;;
27025;SDS011;14565;48.626;8.978;2023-02-19T08:00:35;0.60;;;0.40;;
27025;SDS011;14565;48.626;8.978;2023-02-19T08:03:01;1.02;;;0.60;;
27025;SDS011;14565;48.626;8.978;2023-02-19T08:05:27;1.98;;;1.02;;
27025;SDS011;14565;48.626;8.978;2023-02-19T08:10:21;0.80;;;0.70;;
27025;SDS011;14565;48.626;8.978;2023-02-19T08:13:07;0.65;;;0.60;;
27025;SDS011;14565;48.626;8.978;2023-02-19T08:15:47;1.10;;;0.70;;
27025;SDS011;14565;48.626;8.978;2023-02-19T08:18:13;1.50;;;0.90;;
27025;SDS011;14565;48.626;8.978;2023-02-19T08:20:40;2.63;;;1.30;;
27025;SDS011;14565;48.626;8.978;2023-02-19T08:23:07;1.38;;;1.00;;
27025;SDS011;14565;48.626;8.978;2023-02-19T08:25:33;1.52;;;1.13;;
27025;SDS011;14565;48.626;8.978;2023-02-19T08:27:59;1.77;;;1.10;;
27025;SDS011;14565;48.626;8.978;2023-02-19T08:30:25;1.52;;;1.00;;
27025;SDS011;14565;48.626;8.978;2023-02-19T08:32:51;1.58;;;1.10;;
27025;SDS011;14565;48.626;8.978;2023-02-19T08:35:17;2.85;;;1.27;;
27025;SDS011;14565;48.626;8.978;2023-02-19T08:37:43;1.08;;;0.85;;
27025;SDS011;14565;48.626;8.978;2023-02-19T08:40:09;0.90;;;0.80;;
27025;SDS011;14565;48.626;8.978;2023-02-19T08:42:35;1.58;;;0.80;;
27025;SDS011;14565;48.626;8.978;2023-02-19T08:45:01;1.00;;;0.50;;
27025;SDS011;14565;48.626;8.978;2023-02-19T08:47:27;1.70;;;0.60;;
27025;SDS011;14565;48.626;8.978;2023-02-19T08:49:52;0.80;;;0.50;;
27025;SDS011;14565;48.626;8.978;2023-02-19T08:52:18;0.70;;;0.52;;
27025;SDS011;14565;48.626;8.978;2023-02-19T08:54:44;1.08;;;0.60;;
27025;SDS011;14565;48.626;8.978;2023-02-19T08:57:09;1.00;;;0.60;;
27025;SDS011;14565;48.626;8.978;2023-02-19T08:59:35;1.67;;;0.95;;
27025;SDS011;14565;48.626;8.978;2023-02-19T09:02:01;1.77;;;0.90;;
27025;SDS011;14565;48.626;8.978;2023-02-19T09:04:26;1.00;;;0.80;;
27025;SDS011;14565;48.626;8.978;2023-02-19T09:06:52;1.00;;;0.70;;
27025;SDS011;14565;48.626;8.978;2023-02-19T09:09:18;1.10;;;0.80;;
27025;SDS011;14565;48.626;8.978;2023-02-19T09:11:43;1.58;;;1.00;;
27025;SDS011;14565;48.626;8.978;2023-02-19T09:14:09;2.95;;;1.67;;
27025;SDS011;14565;48.626;8.978;2023-02-19T09:16:35;2.25;;;0.90;;
27025;SDS011;14565;48.626;8.978;2023-02-19T09:19:01;2.53;;;1.05;;
27025;SDS011;14565;48.626;8.978;2023-02-19T09:21:29;1.83;;;1.17;;
27025;SDS011;14565;48.626;8.978;2023-02-19T09:23:55;2.65;;;1.35;;
27025;SDS011;14565;48.626;8.978;2023-02-19T09:26:21;1.92;;;1.17;;
27025;SDS011;14565;48.626;8.978;2023-02-19T09:28:47;2.00;;;0.85;;
27025;SDS011;14565;48.626;8.978;2023-02-19T09:31:13;3.42;;;0.95;;
27025;SDS011;14565;48.626;8.978;2023-02-19T09:33:43;2.45;;;0.95;;
27025;SDS011;14565;48.626;8.978;2023-02-19T09:36:10;1.67;;;0.75;;
27025;SDS011;14565;48.626;8.978;2023-02-19T09:38:36;1.35;;;0.60;;
27025;SDS011;14565;48.626;8.978;2023-02-19T09:41:08;2.75;;;0.98;;
27025;SDS011;14565;48.626;8.978;2023-02-19T09:43:39;1.40;;;0.73;;
27025;SDS011;14565;48.626;8.978;2023-02-19T09:46:08;1.60;;;0.85;;
27025;SDS011;14565;48.626;8.978;2023-02-19T09:49:06;3.42;;;0.68;;
27025;SDS011;14565;48.626;8.978;2023-02-19T09:51:38;2.75;;;0.80;;
27025;SDS011;14565;48.626;8.978;2023-02-19T09:54:10;2.85;;;0.60;;
27025;SDS011;14565;48.626;8.978;2023-02-19T09:56:48;1.52;;;0.80;;
27025;SDS011;14565;48.626;8.978;2023-02-19T09:59:19;4.80;;;0.75;;
27025;SDS011;14565;48.626;8.978;2023-02-19T10:01:48;2.35;;;0.90;;
27025;SDS011;14565;48.626;8.978;2023-02-19T10:04:21;2.65;;;1.00;;
27025;SDS011;14565;48.626;8.978;2023-02-19T10:06:46;3.83;;;1.00;;
27025;SDS011;14565;48.626;8.978;2023-02-19T10:09:21;4.57;;;1.30;;
27025;SDS011;14565;48.626;8.978;2023-02-19T10:11:50;3.15;;;1.08;;
27025;SDS011;14565;48.626;8.978;2023-02-19T10:14:24;2.13;;;0.80;;
27025;SDS011;14565;48.626;8.978;2023-02-19T10:16:54;2.13;;;0.88;;
27025;SDS011;14565;48.626;8.978;2023-02-19T10:19:24;3.03;;;0.90;;
27025;SDS011;14565;48.626;8.978;2023-02-19T10:21:50;3.30;;;1.02;;
27025;SDS011;14565;48.626;8.978;2023-02-19T10:24:20;1.60;;;0.80;;
27025;SDS011;14565;48.626;8.978;2023-02-19T10:26:52;2.17;;;0.90;;
27025;SDS011;14565;48.626;8.978;2023-02-19T10:29:18;6.00;;;1.20;;
27025;SDS011;14565;48.626;8.978;2023-02-19T10:31:45;2.20;;;0.70;;
27025;SDS011;14565;48.626;8.978;2023-02-19T10:34:18;5.50;;;1.25;;
27025;SDS011;14565;48.626;8.978;2023-02-19T10:36:46;4.25;;;1.50;;
27025;SDS011;14565;48.626;8.978;2023-02-19T10:41:47;7.13;;;2.50;;
27025;SDS011;14565;48.626;8.978;2023-02-19T10:44:16;3.95;;;1.23;;
27025;SDS011;14565;48.626;8.978;2023-02-19T10:46:49;2.35;;;0.95;;
27025;SDS011;14565;48.626;8.978;2023-02-19T10:49:30;5.40;;;1.13;;
27025;SDS011;14565;48.626;8.978;2023-02-19T10:52:19;4.07;;;1.45;;
27025;SDS011;14565;48.626;8.978;2023-02-19T10:54:48;2.83;;;1.08;;
27025;SDS011;14565;48.626;8.978;2023-02-19T11:02:26;3.53;;;1.30;;
27025;SDS011;14565;48.626;8.978;2023-02-19T11:05:03;4.15;;;1.10;;
27025;SDS011;14565;48.626;8.978;2023-02-19T11:07:32;4.10;;;0.90;;
27025;SDS011;14565;48.626;8.978;2023-02-19T11:10:03;3.63;;;1.08;;
27025;SDS011;14565;48.626;8.978;2023-02-19T11:12:32;2.55;;;0.70;;
27025;SDS011;14565;48.626;8.978;2023-02-19T11:15:12;2.47;;;0.70;;
27025;SDS011;14565;48.626;8.978;2023-02-19T11:17:55;2.78;;;0.68;;
27025;SDS011;14565;48.626;8.978;2023-02-19T11:20:27;2.60;;;0.70;;
27025;SDS011;14565;48.626;8.978;2023-02-19T11:22:55;7.18;;;1.00;;
27025;SDS011;14565;48.626;8.978;2023-02-19T11:25:25;6.40;;;2.45;;
27025;SDS011;14565;48.626;8.978;2023-02-19T11:27:54;12.98;;;6.30;;
27025;SDS011;14565;48.626;8.978;2023-02-19T11:32:46;4.70;;;1.80;;
27025;SDS011;14565;48.626;8.978;2023-02-19T11:35:12;5.63;;;1.88;;
27025;SDS011;14565;48.626;8.978;2023-02-19T11:37:51;6.47;;;3.63;;
27025;SDS011;14565;48.626;8.978;2023-02-19T11:40:42;21.23;;;12.25;;
27025;SDS011;14565;48.626;8.978;2023-02-19T11:47:19;8.13;;;3.35;;
27025;SDS011;14565;48.626;8.978;2023-02-19T12:15:23;5.50;;;1.88;;
27025;SDS011;14565;48.626;8.978;2023-02-19T12:20:42;3.58;;;0.98;;
27025;SDS011;14565;48.626;8.978;2023-02-19T12:26:40;5.22;;;1.00;;
27025;SDS011;14565;48.626;8.978;2023-02-19T12:32:09;3.58;;;0.90;;
27025;SDS011;14565;48.626;8.978;2023-02-19T12:40:31;3.95;;;1.15;;
27025;SDS011;14565;48.626;8.978;2023-02-19T12:43:22;2.53;;;1.40;;
27025;SDS011;14565;48.626;8.978;2023-02-19T12:54:09;2.47;;;0.80;;
27025;SDS011;14565;48.626;8.978;2023-02-19T13:02:32;3.47;;;0.98;;
27025;SDS011;14565;48.626;8.978;2023-02-19T13:13:06;2.58;;;0.88;;
27025;SDS011;14565;48.626;8.978;2023-02-19T13:15:48;2.63;;;1.20;;
27025;SDS011;14565;48.626;8.978;2023-02-19T13:18:31;5.00;;;1.27;;
27025;SDS011;14565;48.626;8.978;2023-02-19T13:21:05;3.08;;;1.00;;
27025;SDS011;14565;48.626;8.978;2023-02-19T13:23:32;3.88;;;1.10;;
27025;SDS011;14565;48.626;8.978;2023-02-19T13:34:04;3.60;;;1.40;;
27025;SDS011;14565;48.626;8.978;2023-02-19T13:36:35;3.50;;;1.20;;
27025;SDS011;14565;48.626;8.978;2023-02-19T13:39:03;3.20;;;1.30;;
27025;SDS011;14565;48.626;8.978;2023-02-19T13:41:32;4.88;;;1.17;;
27025;SDS011;14565;48.626;8.978;2023-02-19T13:44:00;2.47;;;1.27;;
27025;SDS011;14565;48.626;8.978;2023-02-19T13:46:38;5.15;;;1.42;;
27025;SDS011;14565;48.626;8.978;2023-02-19T13:51:54;1.88;;;0.77;;
27025;SDS011;14565;48.626;8.978;2023-02-19T13:59:44;2.22;;;0.88;;
27025;SDS011;14565;48.626;8.978;2023-02-19T14:02:11;1.85;;;0.80;;
27025;SDS011;14565;48.626;8.978;2023-02-19T14:09:51;4.43;;;1.00;;
27025;SDS011;14565;48.626;8.978;2023-02-19T14:12:19;3.10;;;1.10;;
27025;SDS011;14565;48.626;8.978;2023-02-19T14:30:50;5.93;;;1.15;;
27025;SDS011;14565;48.626;8.978;2023-02-19T14:33:36;4.63;;;0.98;;
27025;SDS011;14565;48.626;8.978;2023-02-19T14:38:35;5.70;;;1.00;;
27025;SDS011;14565;48.626;8.978;2023-02-19T14:41:29;2.55;;;0.93;;
27025;SDS011;14565;48.626;8.978;2023-02-19T14:44:00;4.28;;;1.00;;
27025;SDS011;14565;48.626;8.978;2023-02-19T14:46:29;6.15;;;1.27;;
27025;SDS011;14565;48.626;8.978;2023-02-19T14:49:06;2.60;;;0.88;;
27025;SDS011;14565;48.626;8.978;2023-02-19T14:51:42;3.53;;;1.20;;
27025;SDS011;14565;48.626;8.978;2023-02-19T14:54:15;3.17;;;1.15;;
27025;SDS011;14565;48.626;8.978;2023-02-19T14:56:45;3.83;;;0.80;;
27025;SDS011;14565;48.626;8.978;2023-02-19T14:59:28;4.25;;;1.15;;
27025;SDS011;14565;48.626;8.978;2023-02-19T15:04:28;3.58;;;0.85;;
27025;SDS011;14565;48.626;8.978;2023-02-19T15:06:59;3.17;;;0.95;;
27025;SDS011;14565;48.626;8.978;2023-02-19T15:09:31;1.88;;;1.00;;
27025;SDS011;14565;48.626;8.978;2023-02-19T15:12:02;3.03;;;0.98;;
27025;SDS011;14565;48.626;8.978;2023-02-19T15:14:28;2.50;;;0.93;;
27025;SDS011;14565;48.626;8.978;2023-02-19T15:16:57;5.72;;;1.20;;
27025;SDS011;14565;48.626;8.978;2023-02-19T15:19:30;2.70;;;0.80;;
27025;SDS011;14565;48.626;8.978;2023-02-19T15:21:59;1.95;;;0.70;;
27025;SDS011;14565;48.626;8.978;2023-02-19T15:24:25;5.28;;;1.40;;
27025;SDS011;14565;48.626;8.978;2023-02-19T15:26:52;4.15;;;1.70;;
27025;SDS011;14565;48.626;8.978;2023-02-19T15:29:20;3.80;;;1.45;;
27025;SDS011;14565;48.626;8.978;2023-02-19T15:31:49;5.28;;;2.10;;
27025;SDS011;14565;48.626;8.978;2023-02-19T15:34:23;3.28;;;1.20;;
27025;SDS011;14565;48.626;8.978;2023-02-19T15:36:57;5.95;;;1.13;;
27025;SDS011;14565;48.626;8.978;2023-02-19T15:39:32;3.78;;;1.40;;
27025;SDS011;14565;48.626;8.978;2023-02-19T15:42:07;5.38;;;1.50;;
27025;SDS011;14565;48.626;8.978;2023-02-19T15:44:50;3.60;;;1.60;;
27025;SDS011;14565;48.626;8.978;2023-02-19T15:47:32;4.70;;;1.48;;
27025;SDS011;14565;48.626;8.978;2023-02-19T15:50:30;4.57;;;1.42;;
27025;SDS011;14565;48.626;8.978;2023-02-19T15:53:02;3.08;;;1.20;;
27025;SDS011;14565;48.626;8.978;2023-02-19T15:58:28;4.18;;;1.52;;
27025;SDS011;14565;48.626;8.978;2023-02-19T16:01:20;6.88;;;2.00;;
27025;SDS011;14565;48.626;8.978;2023-02-19T16:03:44;3.75;;;1.58;;
27025;SDS011;14565;48.626;8.978;2023-02-19T16:06:14;3.65;;;1.50;;
27025;SDS011;14565;48.626;8.978;2023-02-19T16:08:45;5.82;;;1.77;;
27025;SDS011;14565;48.626;8.978;2023-02-19T16:13:48;5.25;;;1.38;;
27025;SDS011;14565;48.626;8.978;2023-02-19T16:18:51;4.57;;;1.85;;
27025;SDS011;14565;48.626;8.978;2023-02-19T16:21:23;2.60;;;1.38;;
27025;SDS011;14565;48.626;8.978;2023-02-19T16:23:52;5.13;;;1.42;;
27025;SDS011;14565;48.626;8.978;2023-02-19T16:26:25;5.63;;;1.50;;
27025;SDS011;14565;48.626;8.978;2023-02-19T16:28:52;5.65;;;1.67;;
27025;SDS011;14565;48.626;8.978;2023-02-19T16:31:20;3.55;;;1.63;;
27025;SDS011;14565;48.626;8.978;2023-02-19T16:33:47;4.00;;;1.70;;
27025;SDS011;14565;48.626;8.978;2023-02-19T16:41:31;6.10;;;1.95;;
27025;SDS011;14565;48.626;8.978;2023-02-19T16:46:53;5.97;;;1.60;;
27025;SDS011;14565;48.626;8.978;2023-02-19T16:49:21;5.63;;;1.73;;
27025;SDS011;14565;48.626;8.978;2023-02-19T16:51:47;7.05;;;2.30;;
27025;SDS011;14565;48.626;8.978;2023-02-19T16:54:15;3.90;;;1.73;;
27025;SDS011;14565;48.626;8.978;2023-02-19T16:56:41;5.65;;;1.75;;
27025;SDS011;14565;48.626;8.978;2023-02-19T16:59:06;8.45;;;2.00;;
27025;SDS011;14565;48.626;8.978;2023-02-19T17:01:33;4.68;;;1.90;;
27025;SDS011;14565;48.626;8.978;2023-02-19T17:04:02;7.00;;;2.80;;
27025;SDS011;14565;48.626;8.978;2023-02-19T17:06:29;9.90;;;2.88;;
27025;SDS011;14565;48.626;8.978;2023-02-19T17:08:56;8.00;;;2.33;;
27025;SDS011;14565;48.626;8.978;2023-02-19T17:11:23;4.15;;;2.35;;
27025;SDS011;14565;48.626;8.978;2023-02-19T17:13:48;8.43;;;3.10;;
27025;SDS011;14565;48.626;8.978;2023-02-19T17:18:51;4.85;;;2.35;;
27025;SDS011;14565;48.626;8.978;2023-02-19T17:21:22;7.55;;;2.20;;
27025;SDS011;14565;48.626;8.978;2023-02-19T17:23:49;9.23;;;2.55;;
27025;SDS011;14565;48.626;8.978;2023-02-19T17:26:17;6.05;;;2.97;;
27025;SDS011;14565;48.626;8.978;2023-02-19T17:28:50;42.65;;;19.15;;
27025;SDS011;14565;48.626;8.978;2023-02-19T17:31:16;30.73;;;15.07;;
27025;SDS011;14565;48.626;8.978;2023-02-19T17:33:42;17.52;;;9.90;;
27025;SDS011;14565;48.626;8.978;2023-02-19T17:39:12;5.68;;;2.60;;
27025;SDS011;14565;48.626;8.978;2023-02-19T17:41:42;7.03;;;3.00;;
27025;SDS011;14565;48.626;8.978;2023-02-19T17:44:08;6.25;;;2.53;;
27025;SDS011;14565;48.626;8.978;2023-02-19T17:46:34;9.20;;;3.00;;
27025;SDS011;14565;48.626;8.978;2023-02-19T17:48:59;7.53;;;3.00;;
27025;SDS011;14565;48.626;8.978;2023-02-19T17:51:25;7.28;;;2.83;;
27025;SDS011;14565;48.626;8.978;2023-02-19T17:53:51;6.25;;;2.95;;
27025;SDS011;14565;48.626;8.978;2023-02-19T17:56:17;7.43;;;3.90;;
27025;SDS011;14565;48.626;8.978;2023-02-19T17:58:45;7.10;;;3.78;;
27025;SDS011;14565;48.626;8.978;2023-02-19T18:01:11;7.45;;;3.72;;